createdAt,value
2018-12-19T00:00:37.450Z,2.30
2018-12-19T00:03:05.328Z,2.20
2018-12-19T00:05:33.238Z,2.30
2018-12-19T00:08:01.467Z,2.20
2018-12-19T00:10:29.308Z,2.20
2018-12-19T00:12:57.331Z,2.20
2018-12-19T00:15:25.212Z,2.20
2018-12-19T00:17:53.158Z,2.20
2018-12-19T00:20:21.082Z,2.30
2018-12-19T00:22:48.962Z,2.30
2018-12-19T00:25:16.931Z,2.30
2018-12-19T00:27:44.977Z,2.30
2018-12-19T00:30:12.961Z,2.30
2018-12-19T00:32:40.851Z,2.40
2018-12-19T00:35:08.700Z,2.40
2018-12-19T00:37:36.591Z,2.40
2018-12-19T00:40:04.636Z,2.40
2018-12-19T00:42:32.557Z,2.50
2018-12-19T00:45:00.956Z,2.50
2018-12-19T00:47:28.868Z,2.50
2018-12-19T00:49:56.750Z,2.60
2018-12-19T00:52:24.563Z,2.70
2018-12-19T00:54:52.504Z,2.70
2018-12-19T00:57:20.252Z,2.60
2018-12-19T00:59:48.240Z,2.50
2018-12-19T01:02:16.084Z,2.50
2018-12-19T01:04:48.052Z,2.40
2018-12-19T01:07:13.716Z,2.40
2018-12-19T01:09:42.146Z,2.40
2018-12-19T01:12:10.071Z,2.30
2018-12-19T01:14:37.957Z,2.30
2018-12-19T01:17:05.791Z,2.30
2018-12-19T01:19:33.741Z,2.40
2018-12-19T01:22:01.943Z,2.50
2018-12-19T01:24:29.831Z,2.50
2018-12-19T01:26:57.651Z,2.50
2018-12-19T01:29:25.544Z,2.50
2018-12-19T01:31:53.456Z,2.60
2018-12-19T01:34:21.364Z,2.60
2018-12-19T01:36:49.235Z,2.50
2018-12-19T01:39:22.450Z,2.60
2018-12-19T01:41:47.012Z,2.60
2018-12-19T01:44:14.900Z,2.60
2018-12-19T01:46:42.795Z,2.60
2018-12-19T01:49:10.620Z,2.70
2018-12-19T01:51:38.629Z,2.70
2018-12-19T01:54:06.815Z,2.70
2018-12-19T01:56:34.823Z,2.70
2018-12-19T01:59:02.646Z,2.80
2018-12-19T02:01:30.643Z,2.80
2018-12-19T02:03:58.601Z,2.90
2018-12-19T02:06:26.520Z,2.90
2018-12-19T02:08:54.430Z,2.90
2018-12-19T02:11:22.309Z,2.90
2018-12-19T02:13:50.169Z,2.90
2018-12-19T02:16:18.077Z,2.80
2018-12-19T02:18:45.968Z,2.70
2018-12-19T02:21:13.792Z,2.70
2018-12-19T02:23:41.799Z,2.70
2018-12-19T02:26:09.753Z,2.70
2018-12-19T02:28:37.635Z,2.70
2018-12-19T02:31:05.443Z,2.70
2018-12-19T02:33:33.271Z,2.70
2018-12-19T02:36:01.325Z,2.70
2018-12-19T02:38:29.323Z,2.60
2018-12-19T02:40:57.125Z,2.60
2018-12-19T02:43:25.119Z,2.60
2018-12-19T02:45:53.000Z,2.70
2018-12-19T02:48:20.901Z,2.70
2018-12-19T02:50:48.758Z,2.60
2018-12-19T02:53:16.804Z,2.60
2018-12-19T02:55:44.629Z,2.50
2018-12-19T02:58:12.699Z,2.60
2018-12-19T03:00:40.586Z,2.60
2018-12-19T03:03:08.565Z,2.60
2018-12-19T03:05:36.405Z,2.70
2018-12-19T03:08:04.312Z,2.70
2018-12-19T03:10:32.133Z,2.80
2018-12-19T03:12:59.955Z,2.80
2018-12-19T03:15:28.390Z,2.80
2018-12-19T03:17:56.231Z,2.80
2018-12-19T03:20:24.151Z,2.80
2018-12-19T03:22:51.972Z,2.80
2018-12-19T03:25:19.864Z,2.80
2018-12-19T03:27:47.679Z,2.80
2018-12-19T03:30:15.597Z,2.70
2018-12-19T03:32:43.454Z,2.70
2018-12-19T03:35:11.373Z,2.60
2018-12-19T03:37:39.209Z,2.60
2018-12-19T03:40:07.252Z,2.60
2018-12-19T03:42:35.233Z,2.60
2018-12-19T03:45:03.522Z,2.60
2018-12-19T03:47:32.455Z,2.60
2018-12-19T03:50:00.320Z,2.70
2018-12-19T03:52:28.309Z,2.70
2018-12-19T03:54:56.171Z,2.70
2018-12-19T03:57:24.295Z,2.70
2018-12-19T03:59:52.309Z,2.60
2018-12-19T04:02:20.139Z,2.60
2018-12-19T04:04:47.955Z,2.60
2018-12-19T04:07:15.883Z,2.50
2018-12-19T04:09:43.711Z,2.60
2018-12-19T04:12:11.592Z,2.60
2018-12-19T04:14:39.410Z,2.60
2018-12-19T04:17:07.418Z,2.70
2018-12-19T04:19:35.246Z,2.70
2018-12-19T04:22:03.344Z,2.70
2018-12-19T04:24:31.162Z,2.70
2018-12-19T04:26:59.087Z,2.80
2018-12-19T04:29:26.927Z,2.70
2018-12-19T04:31:54.829Z,2.70
2018-12-19T04:34:22.668Z,2.70
2018-12-19T04:36:50.646Z,2.70
2018-12-19T04:39:18.466Z,2.80
2018-12-19T04:41:46.365Z,2.80
2018-12-19T04:44:14.335Z,2.80
2018-12-19T04:46:42.133Z,2.90
2018-12-19T04:49:10.020Z,3.00
2018-12-19T04:51:37.945Z,3.00
2018-12-19T04:54:05.858Z,3.00
2018-12-19T04:56:33.673Z,3.10
2018-12-19T04:59:01.735Z,3.10
2018-12-19T05:01:29.611Z,3.20
2018-12-19T05:03:57.605Z,3.20
2018-12-19T05:06:25.428Z,3.20
2018-12-19T05:08:53.323Z,3.20
2018-12-19T05:11:21.128Z,3.10
2018-12-19T05:13:49.088Z,3.10
2018-12-19T05:16:16.913Z,3.10
2018-12-19T05:18:44.813Z,3.10
2018-12-19T05:21:12.668Z,3.00
2018-12-19T05:23:40.563Z,3.10
2018-12-19T05:26:08.530Z,3.10
2018-12-19T05:28:36.350Z,3.10
2018-12-19T05:31:04.441Z,3.10
2018-12-19T05:33:32.232Z,3.00
2018-12-19T05:36:00.065Z,3.10
2018-12-19T05:38:28.195Z,3.20
2018-12-19T05:40:56.092Z,3.20
2018-12-19T05:43:24.000Z,3.20
2018-12-19T05:45:51.840Z,3.30
2018-12-19T05:48:19.578Z,3.40
2018-12-19T05:50:47.488Z,3.50
2018-12-19T05:53:15.309Z,3.50
2018-12-19T05:55:43.217Z,3.40
2018-12-19T05:58:10.928Z,3.50
2018-12-19T06:00:38.820Z,3.40
2018-12-19T06:03:06.659Z,3.50
2018-12-19T06:05:34.542Z,3.60
2018-12-19T06:08:02.553Z,3.60
2018-12-19T06:10:30.439Z,3.70
2018-12-19T06:12:58.252Z,3.70
2018-12-19T06:15:26.093Z,3.80
2018-12-19T06:17:54.116Z,3.90
2018-12-19T06:20:21.912Z,3.90
2018-12-19T06:22:49.795Z,4.00
2018-12-19T06:25:17.634Z,4.00
2018-12-19T06:27:45.536Z,4.10
2018-12-19T06:30:14.292Z,4.20
2018-12-19T06:32:43.211Z,4.20
2018-12-19T06:35:11.062Z,4.20
2018-12-19T06:37:38.862Z,4.30
2018-12-19T06:40:07.451Z,4.30
2018-12-19T06:42:35.680Z,4.20
2018-12-19T06:45:04.967Z,4.20
2018-12-19T06:47:33.488Z,4.10
2018-12-19T06:50:01.439Z,4.00
2018-12-19T06:52:30.120Z,3.90
2018-12-19T06:54:57.915Z,3.90
2018-12-19T06:57:25.820Z,3.80
2018-12-19T06:59:53.632Z,3.90
2018-12-19T07:02:21.579Z,3.90
2018-12-19T07:04:49.534Z,3.90
2018-12-19T07:07:17.349Z,3.90
2018-12-19T07:09:45.240Z,3.90
2018-12-19T07:12:13.190Z,3.90
2018-12-19T07:14:41.257Z,3.80
2018-12-19T07:17:09.083Z,3.90
2018-12-19T07:19:36.896Z,3.80
2018-12-19T07:22:04.798Z,3.90
2018-12-19T07:24:32.693Z,4.00
2018-12-19T07:27:01.103Z,4.00
2018-12-19T07:29:28.991Z,4.00
2018-12-19T07:31:56.818Z,4.00
2018-12-19T07:34:24.731Z,4.00
2018-12-19T07:36:52.478Z,4.00
2018-12-19T07:39:20.512Z,4.00
2018-12-19T07:41:48.347Z,4.10
2018-12-19T07:44:16.328Z,4.10
2018-12-19T07:46:52.136Z,4.10
2018-12-19T07:51:57.371Z,4.00
2018-12-19T07:54:25.288Z,4.00
2018-12-19T07:56:53.138Z,4.00
2018-12-19T07:59:20.956Z,4.00
2018-12-19T08:01:48.883Z,4.00
2018-12-19T08:04:17.148Z,4.00
2018-12-19T08:06:45.155Z,4.10
2018-12-19T08:09:12.992Z,4.10
2018-12-19T08:11:40.997Z,4.00
2018-12-19T08:14:08.829Z,4.00
2018-12-19T08:16:36.881Z,4.00
2018-12-19T08:19:04.724Z,4.00
2018-12-19T08:21:32.620Z,4.00
2018-12-19T08:24:00.372Z,4.00
2018-12-19T08:26:28.279Z,4.00
2018-12-19T08:28:56.250Z,4.00
2018-12-19T08:31:24.776Z,4.00
2018-12-19T08:33:52.739Z,4.00
2018-12-19T08:36:20.653Z,4.10
2018-12-19T08:38:48.587Z,4.10
2018-12-19T08:41:16.439Z,4.20
2018-12-19T08:43:44.364Z,4.20
2018-12-19T08:46:14.713Z,4.30
2018-12-19T08:48:42.167Z,4.30
2018-12-19T08:51:10.043Z,4.30
2018-12-19T08:53:38.061Z,4.30
2018-12-19T08:56:06.136Z,4.30
2018-12-19T08:58:34.043Z,4.20
2018-12-19T09:01:02.161Z,4.20
2018-12-19T09:03:30.172Z,4.20
2018-12-19T09:05:58.013Z,4.20
2018-12-19T09:08:25.931Z,4.20
2018-12-19T09:10:53.840Z,4.20
2018-12-19T09:13:21.872Z,4.30
2018-12-19T09:15:49.787Z,4.30
2018-12-19T09:18:19.056Z,4.40
2018-12-19T09:20:47.155Z,4.40
2018-12-19T09:23:15.568Z,4.40
2018-12-19T09:25:43.546Z,4.40
2018-12-19T09:28:11.511Z,4.40
2018-12-19T09:30:39.364Z,4.40
2018-12-19T09:33:07.232Z,4.40
2018-12-19T09:35:35.173Z,4.40
2018-12-19T09:38:02.991Z,4.50
2018-12-19T09:40:30.883Z,4.50
2018-12-19T09:42:58.899Z,4.60
2018-12-19T09:45:26.894Z,4.60
2018-12-19T09:47:54.756Z,4.70
2018-12-19T09:50:22.804Z,4.50
2018-12-19T09:52:50.693Z,4.60
2018-12-19T09:55:18.596Z,4.50
2018-12-19T09:57:46.470Z,4.60
2018-12-19T10:00:20.151Z,4.50
2018-12-19T10:02:49.604Z,4.60
2018-12-19T10:05:17.531Z,4.60
2018-12-19T10:07:45.389Z,4.60
2018-12-19T10:10:13.292Z,4.50
2018-12-19T10:12:41.095Z,4.50
2018-12-19T10:15:09.123Z,4.60
2018-12-19T10:17:40.872Z,4.60
2018-12-19T10:20:07.075Z,4.70
2018-12-19T10:22:35.011Z,4.70
2018-12-19T10:25:08.892Z,4.60
2018-12-19T10:27:38.351Z,4.60
2018-12-19T10:30:08.770Z,4.70
2018-12-19T10:32:38.249Z,4.70
2018-12-19T10:35:09.341Z,4.70
2018-12-19T10:37:37.269Z,4.80
2018-12-19T10:40:08.537Z,4.80
2018-12-19T10:42:36.685Z,4.90
2018-12-19T10:45:07.070Z,5.00
2018-12-19T10:47:35.087Z,5.00
2018-12-19T10:50:03.518Z,5.10
2018-12-19T10:52:32.860Z,5.10
2018-12-19T10:55:00.737Z,5.10
2018-12-19T10:57:28.673Z,5.20
2018-12-19T10:59:56.653Z,5.20
2018-12-19T11:02:24.546Z,5.30
2018-12-19T11:04:52.389Z,5.30
2018-12-19T11:07:20.313Z,5.40
2018-12-19T11:09:48.246Z,5.40
2018-12-19T11:12:16.182Z,5.50
2018-12-19T11:14:44.154Z,5.50
2018-12-19T11:17:12.184Z,5.50
2018-12-19T11:19:40.024Z,5.60
2018-12-19T11:22:10.164Z,5.60
2018-12-19T11:24:38.502Z,5.70
2018-12-19T11:27:06.348Z,5.60
2018-12-19T11:29:34.312Z,5.60
2018-12-19T11:32:02.287Z,5.60
2018-12-19T11:34:30.262Z,5.60
2018-12-19T11:36:58.248Z,5.70
2018-12-19T11:39:26.156Z,5.70
2018-12-19T11:41:54.148Z,5.70
2018-12-19T11:44:22.120Z,5.70
2018-12-19T11:46:49.971Z,5.90
2018-12-19T11:49:18.025Z,5.90
2018-12-19T11:51:45.883Z,5.90
2018-12-19T11:54:13.808Z,5.90
2018-12-19T11:56:42.880Z,6.00
2018-12-19T11:59:10.794Z,6.00
2018-12-19T12:01:41.484Z,6.10
2018-12-19T12:04:17.212Z,6.10
2018-12-19T12:06:47.534Z,6.20
2018-12-19T12:09:20.331Z,6.30
2018-12-19T12:11:53.784Z,6.30
2018-12-19T12:14:23.389Z,6.30
2018-12-19T12:16:53.641Z,6.30
2018-12-19T12:19:22.820Z,6.30
2018-12-19T12:21:54.648Z,6.30
2018-12-19T12:24:24.232Z,6.40
2018-12-19T12:26:52.863Z,6.40
2018-12-19T12:29:21.840Z,6.30
2018-12-19T12:31:50.368Z,6.30
2018-12-19T12:34:21.891Z,6.40
2018-12-19T12:36:51.468Z,6.50
2018-12-19T12:39:20.697Z,6.50
2018-12-19T12:41:52.354Z,6.50
2018-12-19T12:44:20.287Z,6.60
2018-12-19T12:46:51.055Z,6.60
2018-12-19T12:49:19.664Z,6.60
2018-12-19T12:51:49.306Z,6.70
2018-12-19T12:54:21.052Z,6.70
2018-12-19T12:56:50.729Z,6.60
2018-12-19T12:59:18.650Z,6.60
2018-12-19T13:01:49.162Z,6.60
2018-12-19T13:04:20.133Z,6.60
2018-12-19T13:06:48.831Z,6.70
2018-12-19T13:09:21.095Z,6.70
2018-12-19T13:11:49.736Z,6.70
2018-12-19T13:14:19.821Z,6.60
2018-12-19T13:16:47.714Z,6.60
2018-12-19T13:19:15.673Z,6.60
2018-12-19T13:21:45.283Z,6.70
2018-12-19T13:24:13.505Z,6.60
2018-12-19T13:26:41.817Z,6.50
2018-12-19T13:29:11.879Z,6.50
2018-12-19T13:31:41.115Z,6.50
2018-12-19T13:34:09.793Z,6.50
2018-12-19T13:36:40.190Z,6.40
2018-12-19T13:39:09.736Z,6.50
2018-12-19T13:41:39.292Z,6.50
2018-12-19T13:44:09.239Z,6.50
2018-12-19T13:46:39.535Z,6.50
2018-12-19T13:49:10.386Z,6.50
2018-12-19T13:51:41.165Z,6.50
2018-12-19T13:54:13.059Z,6.50
2018-12-19T13:56:44.875Z,6.40
2018-12-19T13:59:14.871Z,6.40
2018-12-19T14:01:46.218Z,6.30
2018-12-19T14:04:14.295Z,6.30
2018-12-19T14:06:42.183Z,6.30
2018-12-19T14:09:10.155Z,6.30
2018-12-19T14:11:37.980Z,6.40
2018-12-19T14:14:05.956Z,6.50
2018-12-19T14:16:33.816Z,6.50
2018-12-19T14:19:02.024Z,6.50
2018-12-19T14:21:29.941Z,6.60
2018-12-19T14:23:57.819Z,6.50
2018-12-19T14:26:25.775Z,6.50
2018-12-19T14:28:53.728Z,6.50
2018-12-19T14:31:22.195Z,6.50
2018-12-19T14:33:50.086Z,6.50
2018-12-19T14:36:18.026Z,6.60
2018-12-19T14:38:45.960Z,6.60
2018-12-19T14:41:14.012Z,6.60
2018-12-19T14:43:42.039Z,6.60
2018-12-19T14:46:10.116Z,6.70
2018-12-19T14:48:38.067Z,6.80
2018-12-19T14:51:06.128Z,6.90
2018-12-19T14:53:34.082Z,7.00
2018-12-19T14:56:02.048Z,7.10
2018-12-19T14:58:30.130Z,7.10
2018-12-19T15:00:58.119Z,7.10
2018-12-19T15:03:26.038Z,7.00
2018-12-19T15:05:53.926Z,7.00
2018-12-19T15:08:21.990Z,7.00
2018-12-19T15:10:49.886Z,7.00
2018-12-19T15:13:18.016Z,7.10
2018-12-19T15:15:50.471Z,7.10
2018-12-19T15:18:20.063Z,7.00
2018-12-19T15:20:47.965Z,7.00
2018-12-19T15:23:15.990Z,7.00
2018-12-19T15:25:43.962Z,6.90
2018-12-19T15:28:11.989Z,6.90
2018-12-19T15:30:40.332Z,6.80
2018-12-19T15:33:08.426Z,6.80
2018-12-19T15:35:36.309Z,6.70
2018-12-19T15:38:04.307Z,6.70
2018-12-19T15:40:32.187Z,6.80
2018-12-19T15:43:00.172Z,6.90
2018-12-19T15:45:28.510Z,7.00
2018-12-19T15:47:56.429Z,7.10
2018-12-19T15:50:24.395Z,7.10
2018-12-19T15:52:52.323Z,7.20
2018-12-19T15:55:20.371Z,7.20
2018-12-19T15:57:48.393Z,7.00
2018-12-19T16:00:16.517Z,7.00
2018-12-19T16:02:44.505Z,7.00
2018-12-19T16:05:12.589Z,7.00
2018-12-19T16:07:40.497Z,7.00
2018-12-19T16:10:08.736Z,7.00
2018-12-19T16:12:39.353Z,6.90
2018-12-19T16:15:06.834Z,6.90
2018-12-19T16:17:34.680Z,7.00
2018-12-19T16:20:02.811Z,7.00
2018-12-19T16:22:32.246Z,7.00
2018-12-19T16:25:00.272Z,7.10
2018-12-19T16:27:28.558Z,7.20
2018-12-19T16:29:56.566Z,7.20
2018-12-19T16:32:24.609Z,7.20
2018-12-19T16:34:52.673Z,7.20
2018-12-19T16:37:20.545Z,7.00
2018-12-19T16:39:48.531Z,7.10
2018-12-19T16:42:16.670Z,7.10
2018-12-19T16:44:44.624Z,7.20
2018-12-19T16:47:12.554Z,7.20
2018-12-19T16:49:40.463Z,7.20
2018-12-19T16:52:08.397Z,7.20
2018-12-19T16:54:36.403Z,7.20
2018-12-19T16:57:04.384Z,7.20
2018-12-19T16:59:32.369Z,7.20
2018-12-19T17:02:00.915Z,7.20
2018-12-19T17:04:28.929Z,7.20
2018-12-19T17:06:57.399Z,7.20
2018-12-19T17:09:25.524Z,7.30
2018-12-19T17:11:53.507Z,7.30
2018-12-19T17:14:21.405Z,7.30
2018-12-19T17:16:49.203Z,7.30
2018-12-19T17:19:16.975Z,7.30
2018-12-19T17:21:44.792Z,7.20
2018-12-19T17:24:12.669Z,7.20
2018-12-19T17:26:40.660Z,7.20
2018-12-19T17:29:08.635Z,7.20
2018-12-19T17:31:36.446Z,7.20
2018-12-19T17:34:04.331Z,7.20
2018-12-19T17:36:32.168Z,7.20
2018-12-19T17:38:59.884Z,7.30
2018-12-19T17:41:27.788Z,7.30
2018-12-19T17:43:55.669Z,7.20
2018-12-19T17:46:23.585Z,7.30
2018-12-19T17:48:51.476Z,7.30
2018-12-19T17:51:19.184Z,7.30
2018-12-19T17:53:47.153Z,7.30
2018-12-19T17:56:15.028Z,7.30
2018-12-19T17:58:43.069Z,7.30
2018-12-19T18:01:11.138Z,7.30
2018-12-19T18:03:39.031Z,7.40
2018-12-19T18:06:06.884Z,7.30
2018-12-19T18:08:35.706Z,7.40
2018-12-19T18:11:03.931Z,7.30
2018-12-19T18:13:31.880Z,7.30
2018-12-19T18:15:59.682Z,7.40
2018-12-19T18:18:27.510Z,7.40
2018-12-19T18:20:55.252Z,7.40
2018-12-19T18:23:23.059Z,7.40
2018-12-19T18:25:51.029Z,7.40
2018-12-19T18:28:18.924Z,7.40
2018-12-19T18:30:46.869Z,7.40
2018-12-19T18:33:14.836Z,7.40
2018-12-19T18:35:43.429Z,7.50
2018-12-19T18:38:11.253Z,7.50
2018-12-19T18:40:39.274Z,7.50
2018-12-19T18:43:12.732Z,7.40
2018-12-19T18:45:37.212Z,7.30
2018-12-19T18:48:05.177Z,7.30
2018-12-19T18:50:33.258Z,7.30
2018-12-19T18:53:01.505Z,7.20
2018-12-19T18:55:29.649Z,7.10
2018-12-19T18:57:57.688Z,7.10
2018-12-19T19:00:33.416Z,7.00
2018-12-19T19:03:01.558Z,6.90
2018-12-19T19:05:30.318Z,7.00
2018-12-19T19:07:58.991Z,6.90
2018-12-19T19:10:26.942Z,7.00
2018-12-19T19:12:54.868Z,6.90
2018-12-19T19:15:22.673Z,6.90
2018-12-19T19:17:50.743Z,7.00
2018-12-19T19:20:18.577Z,6.90
2018-12-19T19:22:46.580Z,6.90
2018-12-19T19:25:14.483Z,6.90
2018-12-19T19:27:42.421Z,6.90
2018-12-19T19:30:10.508Z,6.90
2018-12-19T19:32:38.440Z,6.90
2018-12-19T19:35:06.500Z,7.00
2018-12-19T19:37:34.484Z,6.90
2018-12-19T19:40:02.692Z,6.90
2018-12-19T19:42:32.313Z,6.90
2018-12-19T19:45:00.166Z,7.00
2018-12-19T19:47:28.437Z,7.00
2018-12-19T19:49:56.328Z,7.10
2018-12-19T19:52:24.266Z,7.00
2018-12-19T19:54:52.114Z,7.10
2018-12-19T19:57:19.959Z,7.10
2018-12-19T19:59:47.949Z,7.10
2018-12-19T20:02:15.782Z,7.20
2018-12-19T20:04:44.374Z,7.10
2018-12-19T20:07:12.290Z,7.00
2018-12-19T20:09:40.422Z,7.10
2018-12-19T20:12:08.300Z,7.10
2018-12-19T20:14:36.440Z,7.10
2018-12-19T20:17:04.497Z,7.10
2018-12-19T20:19:32.572Z,7.10
2018-12-19T20:22:00.424Z,7.10
2018-12-19T20:24:28.464Z,7.10
2018-12-19T20:26:56.384Z,7.10
2018-12-19T20:29:25.276Z,7.10
2018-12-19T20:31:53.073Z,7.00
2018-12-19T20:34:21.000Z,7.00
2018-12-19T20:36:48.741Z,7.00
2018-12-19T20:39:16.671Z,7.00
2018-12-19T20:41:44.549Z,6.90
2018-12-19T20:44:12.572Z,6.90
2018-12-19T20:46:40.402Z,6.90
2018-12-19T20:49:08.165Z,6.80
2018-12-19T20:51:36.181Z,6.80
2018-12-19T20:54:04.173Z,6.80
2018-12-19T20:56:32.162Z,6.80
2018-12-19T20:59:00.004Z,6.80
2018-12-19T21:01:28.244Z,6.80
2018-12-19T21:03:56.195Z,6.80
2018-12-19T21:06:24.191Z,6.80
2018-12-19T21:08:52.068Z,6.70
2018-12-19T21:11:19.979Z,6.70
2018-12-19T21:13:47.844Z,6.70
2018-12-19T21:16:15.936Z,6.70
2018-12-19T21:18:50.613Z,6.70
2018-12-19T21:21:18.709Z,6.70
2018-12-19T21:23:46.751Z,6.70
2018-12-19T21:26:14.632Z,6.70
2018-12-19T21:28:42.625Z,6.70
2018-12-19T21:31:10.411Z,6.70
2018-12-19T21:33:38.361Z,6.80
2018-12-19T21:36:06.296Z,6.80
2018-12-19T21:38:34.231Z,6.90
2018-12-19T21:41:02.284Z,6.80
2018-12-19T21:43:30.302Z,6.90
2018-12-19T21:45:58.506Z,7.00
2018-12-19T21:48:26.561Z,7.00
2018-12-19T21:50:54.672Z,7.00
2018-12-19T21:53:22.709Z,7.00
2018-12-19T21:55:50.698Z,7.00
2018-12-19T21:58:18.830Z,7.00
2018-12-19T22:00:46.848Z,7.00
2018-12-19T22:03:14.852Z,7.00
2018-12-19T22:05:43.194Z,7.00
2018-12-19T22:08:11.248Z,7.10
2018-12-19T22:10:39.396Z,7.20
2018-12-19T22:13:07.315Z,7.10
2018-12-19T22:15:35.310Z,7.10
2018-12-19T22:18:08.986Z,7.10
2018-12-19T22:20:38.664Z,7.10
2018-12-19T22:23:06.613Z,7.00
2018-12-19T22:25:34.700Z,6.90
2018-12-19T22:28:02.755Z,6.90
2018-12-19T22:30:30.807Z,6.90
2018-12-19T22:32:58.704Z,6.90
2018-12-19T22:35:26.645Z,6.90
2018-12-19T22:37:54.497Z,6.90
2018-12-19T22:40:22.514Z,6.90
2018-12-19T22:42:50.512Z,6.90
2018-12-19T22:45:18.571Z,7.00
2018-12-19T22:47:46.618Z,6.90
2018-12-19T22:50:14.570Z,7.00
2018-12-19T22:52:42.720Z,7.00
2018-12-19T22:55:10.575Z,7.10
2018-12-19T22:57:38.502Z,7.20
2018-12-19T23:00:12.564Z,7.20
2018-12-19T23:02:47.953Z,7.20
2018-12-19T23:05:22.473Z,7.20
2018-12-19T23:07:52.212Z,7.30
2018-12-19T23:10:20.218Z,7.40
2018-12-19T23:12:48.124Z,7.50
2018-12-19T23:15:17.212Z,7.50
2018-12-19T23:17:46.804Z,7.50
2018-12-19T23:20:15.016Z,7.40
2018-12-19T23:22:43.489Z,7.30
2018-12-19T23:25:11.666Z,7.20
2018-12-19T23:27:39.768Z,7.10
2018-12-19T23:30:08.321Z,7.10
2018-12-19T23:32:36.912Z,7.10
2018-12-19T23:35:05.152Z,7.00
2018-12-19T23:37:33.316Z,7.10
2018-12-19T23:40:01.561Z,7.20
2018-12-19T23:42:30.010Z,7.20
2018-12-19T23:44:58.176Z,7.30
2018-12-19T23:47:25.995Z,7.30
2018-12-19T23:49:54.196Z,7.30
2018-12-19T23:52:22.156Z,7.30
2018-12-19T23:54:50.242Z,7.30
2018-12-19T23:57:18.171Z,7.30
2018-12-19T23:59:46.298Z,7.30
